Time;durP1;ratioP1;P1;durP2;ratioP2;P2;SDS_P1;SDS_P2;PMS_P1;PMS_P2;Temp;Humidity;BMP_temperature;BMP_pressure;BME280_temperature;BME280_humidity;BME280_pressure;Samples;Min_cycle;Max_cycle;Signal;HPM_P1;HPM_P2
2022/08/08 00:00:58;;;;;;;2.25;0.30;;;;;;;12.71;100.00;100957.47;7391679;19;20106;-58
2022/08/08 00:03:36;;;;;;;2.00;0.98;;;;;;;12.69;100.00;100960.72;7394199;19;20039;-58
2022/08/08 00:06:25;;;;;;;0.32;0.22;;;;;;;12.68;100.00;100964.75;7392577;19;20531;-58
2022/08/08 00:09:00;;;;;;;3.53;1.40;;;;;;;12.68;100.00;100964.75;7395578;19;20015;-58
2022/08/08 00:12:02;;;;;;;2.42;0.80;;;;;;;12.69;100.00;100965.53;7390196;19;20090;-58
2022/08/08 00:14:48;;;;;;;1.02;0.20;;;;;;;12.65;100.00;100957.28;7392049;19;20014;-58
2022/08/08 00:17:22;;;;;;;1.08;0.98;;;;;;;12.64;100.00;100964.13;7393765;19;20011;-58
2022/08/08 00:19:59;;;;;;;1.10;0.65;;;;;;;12.66;100.00;100958.84;7389961;19;20007;-58
2022/08/08 00:22:53;;;;;;;2.33;0.57;;;;;;;12.70;100.00;100964.28;7391293;19;20011;-58
2022/08/08 00:25:23;;;;;;;7.22;1.23;;;;;;;12.71;100.00;100963.06;7390601;19;20014;-59
2022/08/08 00:27:54;;;;;;;0.30;0.20;;;;;;;12.70;100.00;100953.91;7395409;19;20013;-58
2022/08/08 00:30:23;;;;;;;1.65;0.82;;;;;;;12.71;100.00;100958.22;7389702;19;20006;-58
2022/08/08 00:32:56;;;;;;;5.40;0.93;;;;;;;12.75;100.00;100946.91;7392151;19;20019;-58
2022/08/08 00:35:38;;;;;;;0.52;0.50;;;;;;;12.75;100.00;100961.69;7390854;19;20377;-59
2022/08/08 00:38:07;;;;;;;5.57;0.50;;;;;;;12.75;100.00;100963.69;7397382;19;20032;-59
2022/08/08 00:40:36;;;;;;;1.25;0.50;;;;;;;12.77;100.00;100966.78;7398214;19;20023;-58
2022/08/08 00:43:36;;;;;;;1.33;0.93;;;;;;;12.72;100.00;100959.00;7399736;19;20014;-58
2022/08/08 00:46:23;;;;;;;1.15;0.52;;;;;;;12.71;100.00;100965.84;7399825;19;20014;-58
2022/08/08 00:49:17;;;;;;;1.48;0.82;;;;;;;12.70;100.00;100962.28;7398648;19;20013;-58
2022/08/08 00:51:46;;;;;;;1.02;0.70;;;;;;;12.72;100.00;100965.38;7395222;19;20472;-58
2022/08/08 00:54:15;;;;;;;2.58;0.90;;;;;;;12.74;100.00;100968.50;7395018;19;20023;-58
2022/08/08 00:56:42;;;;;;;1.08;0.40;;;;;;;12.72;100.00;100967.41;7396977;19;20074;-58
2022/08/08 00:59:37;;;;;;;1.75;1.00;;;;;;;12.67;100.00;100962.41;7396332;19;20010;-58
2022/08/08 01:02:28;;;;;;;0.75;0.47;;;;;;;12.61;100.00;100970.63;7397401;19;20015;-58
2022/08/08 01:05:32;;;;;;;1.98;0.85;;;;;;;12.58;100.00;100971.56;7395324;19;20112;-58
2022/08/08 01:08:17;;;;;;;0.93;0.52;;;;;;;12.53;100.00;100963.00;7397399;19;20011;-58
2022/08/08 01:10:43;;;;;;;1.77;0.40;;;;;;;12.47;100.00;100971.25;7397269;19;20017;-58
2022/08/08 01:13:53;;;;;;;0.38;0.38;;;;;;;12.41;100.00;100969.50;7395997;19;20003;-58
2022/08/08 01:16:44;;;;;;;3.15;0.70;;;;;;;12.36;100.00;100973.69;7396304;19;20472;-58
2022/08/08 01:19:40;;;;;;;1.15;0.50;;;;;;;12.32;100.00;100963.88;7396838;19;20082;-58
2022/08/08 01:22:28;;;;;;;0.20;0.20;;;;;;;12.18;100.00;100966.00;7397171;19;20043;-58
2022/08/08 01:25:29;;;;;;;1.20;0.68;;;;;;;12.12;100.00;100972.66;7394471;19;20010;-58
2022/08/08 01:28:45;;;;;;;0.35;0.35;;;;;;;12.05;100.00;100979.28;7395653;19;20019;-58
2022/08/08 01:31:49;;;;;;;2.45;0.88;;;;;;;12.00;100.00;100979.09;7394144;19;20022;-58
2022/08/08 01:34:21;;;;;;;0.52;0.38;;;;;;;11.97;100.00;100969.66;7401740;19;20041;-58
2022/08/08 01:37:40;;;;;;;0.65;0.60;;;;;;;11.92;100.00;100964.66;7396988;19;20041;-58
2022/08/08 01:40:19;;;;;;;0.40;0.30;;;;;;;11.86;100.00;100976.88;7393445;19;20011;-58
2022/08/08 01:42:57;;;;;;;1.65;0.35;;;;;;;11.82;100.00;100971.44;7394407;19;20337;-58
2022/08/08 01:45:56;;;;;;;1.75;0.30;;;;;;;11.81;100.00;100964.28;7396298;19;20074;-58
2022/08/08 01:48:43;;;;;;;10.18;0.63;;;;;;;11.77;100.00;100969.22;7392501;19;20027;-58
2022/08/08 01:51:35;;;;;;;0.63;0.45;;;;;;;11.75;100.00;100968.91;7394445;19;20025;-58
2022/08/08 01:54:30;;;;;;;0.30;0.30;;;;;;;11.74;100.00;100964.53;7394974;19;20023;-58
2022/08/08 01:57:38;;;;;;;1.23;0.40;;;;;;;11.67;100.00;100964.84;7396593;19;20052;-58
2022/08/08 02:00:14;;;;;;;1.88;0.70;;;;;;;11.73;100.00;100963.00;7392154;19;20018;-58
2022/08/08 02:02:49;;;;;;;1.52;0.85;;;;;;;11.74;100.00;100963.75;7395711;19;20025;-58
2022/08/08 02:05:40;;;;;;;0.68;0.30;;;;;;;11.71;100.00;100970.28;7394774;19;20356;-58
2022/08/08 02:08:24;;;;;;;1.42;0.65;;;;;;;11.68;100.00;100971.97;7398793;19;20379;-58
2022/08/08 02:10:59;;;;;;;0.75;0.55;;;;;;;11.64;100.00;100970.50;7395557;19;20015;-58
2022/08/08 02:13:32;;;;;;;0.75;0.75;;;;;;;11.61;100.00;100977.75;7394547;19;20011;-58
2022/08/08 02:16:08;;;;;;;1.17;0.60;;;;;;;11.59;100.00;100973.88;7393997;19;20007;-58
2022/08/08 02:18:46;;;;;;;2.75;1.25;;;;;;;11.56;100.00;100966.44;7392628;19;20021;-58
2022/08/08 02:24:06;;;;;;;0.77;0.45;;;;;;;11.48;100.00;100960.31;7394882;19;20011;-58
2022/08/08 02:26:43;;;;;;;0.50;0.50;;;;;;;11.44;100.00;100973.63;7395937;19;20038;-58
2022/08/08 02:29:15;;;;;;;1.05;0.73;;;;;;;11.38;100.00;100975.44;7394308;19;20370;-58
2022/08/08 02:31:57;;;;;;;3.42;1.67;;;;;;;11.35;100.00;100968.75;7392657;19;20017;-58
2022/08/08 02:35:03;;;;;;;1.35;0.93;;;;;;;11.33;100.00;100962.06;7398077;19;20417;-58
2022/08/08 02:38:06;;;;;;;12.05;0.82;;;;;;;11.31;100.00;100972.91;7395816;19;20599;-58
2022/08/08 02:40:44;;;;;;;5.88;1.08;;;;;;;11.24;100.00;100964.81;7395523;19;20011;-58
2022/08/08 02:43:47;;;;;;;1.02;0.50;;;;;;;11.22;100.00;100979.19;7393829;19;20021;-58
2022/08/08 02:46:40;;;;;;;7.43;0.90;;;;;;;11.18;100.00;100977.75;7394620;19;20006;-58
2022/08/08 02:49:25;;;;;;;0.40;0.40;;;;;;;11.16;100.00;100985.81;7391283;19;20014;-58
2022/08/08 02:52:09;;;;;;;0.95;0.52;;;;;;;11.13;100.00;100986.72;7392092;19;20019;-58
2022/08/08 02:54:43;;;;;;;1.85;0.90;;;;;;;11.08;100.00;100985.28;7392431;19;20014;-57
2022/08/08 02:57:47;;;;;;;0.55;0.32;;;;;;;11.05;100.00;100985.38;7396689;19;20021;-58
2022/08/08 03:00:49;;;;;;;0.20;0.20;;;;;;;11.01;100.00;100982.75;7391558;19;20010;-59
2022/08/08 03:03:53;;;;;;;0.50;0.50;;;;;;;10.99;100.00;100987.19;7396980;19;20352;-58
2022/08/08 03:06:41;;;;;;;1.88;0.70;;;;;;;10.97;100.00;100978.50;7392869;19;20018;-58
2022/08/08 03:09:45;;;;;;;2.20;0.73;;;;;;;10.95;100.00;100994.91;7396295;19;20022;-58
2022/08/08 03:12:32;;;;;;;1.02;0.95;;;;;;;10.92;100.00;100984.66;7390974;19;20011;-58
2022/08/08 03:15:20;;;;;;;0.63;0.45;;;;;;;10.90;100.00;100989.91;7393683;19;20037;-58
2022/08/08 03:18:15;;;;;;;0.63;0.63;;;;;;;10.89;100.00;100982.78;7397804;19;20014;-58
2022/08/08 03:20:51;;;;;;;0.50;0.50;;;;;;;10.87;100.00;100990.81;7392679;19;20496;-58
2022/08/08 03:23:21;;;;;;;0.80;0.45;;;;;;;10.84;100.00;100991.69;7391323;19;20011;-58
2022/08/08 03:25:49;;;;;;;2.65;1.15;;;;;;;10.85;100.00;100984.91;7393196;19;20045;-58
2022/08/08 03:28:42;;;;;;;1.13;1.02;;;;;;;10.79;100.00;100992.25;7391233;19;20030;-58
2022/08/08 03:33:55;;;;;;;0.40;0.35;;;;;;;10.79;100.00;100995.03;7396467;19;20377;-58
2022/08/08 03:36:23;;;;;;;1.15;0.40;;;;;;;10.72;100.00;100993.28;7394230;19;20039;-58
2022/08/08 03:38:51;;;;;;;0.30;0.30;;;;;;;10.66;100.00;101004.22;7392337;19;20025;-58
2022/08/08 03:41:19;;;;;;;5.15;1.02;;;;;;;10.64;100.00;100991.97;7391954;19;20018;-58
2022/08/08 03:43:55;;;;;;;1.52;0.52;;;;;;;10.65;100.00;100990.75;7393285;19;20066;-58
2022/08/08 03:46:22;;;;;;;1.55;0.52;;;;;;;10.65;100.00;101004.69;7390791;19;20099;-58
2022/08/08 03:49:01;;;;;;;1.05;0.57;;;;;;;10.65;100.00;101004.69;7391857;19;20043;-58
2022/08/08 03:51:36;;;;;;;0.73;0.40;;;;;;;10.68;100.00;101007.34;7389011;19;20013;-58
2022/08/08 03:54:02;;;;;;;0.70;0.47;;;;;;;10.67;100.00;101010.59;7392829;19;20774;-58
2022/08/08 03:56:32;;;;;;;1.20;1.10;;;;;;;10.71;100.00;101011.25;7392546;19;20015;-58
2022/08/08 03:58:59;;;;;;;0.80;0.80;;;;;;;10.76;100.00;101019.03;7390428;19;20011;-58
2022/08/08 04:01:34;;;;;;;1.33;0.40;;;;;;;10.77;100.00;101017.00;7390143;19;20011;-58
2022/08/08 04:04:01;;;;;;;1.98;1.02;;;;;;;10.79;100.00;101017.34;7393484;19;20025;-58
2022/08/08 04:06:33;;;;;;;0.98;0.38;;;;;;;10.75;100.00;101016.69;7393117;19;20367;-58
2022/08/08 04:09:05;;;;;;;1.00;0.82;;;;;;;10.68;100.00;101011.38;7394753;19;20090;-58
2022/08/08 04:11:31;;;;;;;0.45;0.35;;;;;;;10.63;100.00;101007.88;7390010;19;20014;-58
2022/08/08 04:13:58;;;;;;;1.25;0.80;;;;;;;10.61;100.00;101007.56;7397925;19;20019;-58
2022/08/08 04:16:27;;;;;;;0.88;0.70;;;;;;;10.59;100.00;101015.59;7399404;19;20015;-57
2022/08/08 04:18:54;;;;;;;0.30;0.25;;;;;;;10.56;100.00;101010.16;7397676;19;20010;-58
2022/08/08 04:21:21;;;;;;;0.77;0.73;;;;;;;10.53;100.00;101005.47;7397135;19;20467;-57
2022/08/08 04:23:48;;;;;;;6.97;0.88;;;;;;;10.49;100.00;101000.00;7396286;19;20011;-57
2022/08/08 04:26:14;;;;;;;1.35;0.60;;;;;;;10.45;100.00;101013.28;7399959;19;20090;-58
2022/08/08 04:28:41;;;;;;;0.63;0.63;;;;;;;10.43;100.00;101012.94;7397162;19;20363;-58
2022/08/08 04:31:08;;;;;;;1.52;1.08;;;;;;;10.38;100.00;101021.06;7396647;19;20479;-58
2022/08/08 04:33:35;;;;;;;0.63;0.63;;;;;;;10.35;100.00;101022.72;7400831;19;20468;-57
2022/08/08 04:36:01;;;;;;;0.32;0.32;;;;;;;10.36;100.00;101023.50;7399153;19;20049;-57
2022/08/08 04:38:27;;;;;;;5.10;1.55;;;;;;;10.33;100.00;101019.63;7397494;19;20018;-57
2022/08/08 04:40:56;;;;;;;0.85;0.60;;;;;;;10.32;100.00;101023.63;7397379;19;20034;-57
2022/08/08 04:43:23;;;;;;;0.45;0.40;;;;;;;10.29;100.00;101023.72;7397907;19;20026;-57
2022/08/08 04:45:53;;;;;;;1.42;0.38;;;;;;;10.26;100.00;101025.44;7397054;19;20011;-57
2022/08/08 04:48:19;;;;;;;1.13;0.60;;;;;;;10.27;100.00;101018.63;7396759;19;20021;-57
2022/08/08 04:50:45;;;;;;;2.00;1.00;;;;;;;10.30;100.00;101020.53;7397849;19;20023;-57
2022/08/08 04:53:14;;;;;;;2.03;0.38;;;;;;;10.32;100.00;101031.22;7395908;19;20018;-57
2022/08/08 04:55:43;;;;;;;0.85;0.20;;;;;;;10.29;100.00;101029.31;7397243;19;20015;-58
2022/08/08 04:58:13;;;;;;;1.58;0.98;;;;;;;10.27;100.00;101032.53;7400843;19;20007;-57
2022/08/08 05:00:40;;;;;;;0.77;0.75;;;;;;;10.27;100.00;101024.19;7395730;19;20088;-57
2022/08/08 05:03:07;;;;;;;2.30;0.60;;;;;;;10.28;100.00;101025.75;7396359;19;20039;-57
2022/08/08 05:05:34;;;;;;;1.10;0.70;;;;;;;10.28;100.00;101028.53;7395490;19;20070;-57
2022/08/08 05:08:00;;;;;;;0.73;0.47;;;;;;;10.30;100.00;101031.66;7402034;19;20014;-58
2022/08/08 05:10:29;;;;;;;0.57;0.57;;;;;;;10.31;100.00;101027.63;7395858;19;20482;-58
2022/08/08 05:12:57;;;;;;;5.43;1.27;;;;;;;10.35;100.00;101033.88;7395598;19;20022;-58
2022/08/08 05:15:24;;;;;;;1.17;0.77;;;;;;;10.34;100.00;101037.91;7396016;19;20011;-58
2022/08/08 05:17:50;;;;;;;0.75;0.70;;;;;;;10.30;100.00;101037.22;7399566;19;20086;-58
2022/08/08 05:20:17;;;;;;;0.57;0.45;;;;;;;10.32;100.00;101040.34;7394390;19;20019;-58
2022/08/08 05:22:43;;;;;;;1.65;0.65;;;;;;;10.33;100.00;101039.09;7396715;19;20421;-58
2022/08/08 05:25:11;;;;;;;0.75;0.32;;;;;;;10.36;100.00;101043.00;7394762;19;20010;-58
2022/08/08 05:27:37;;;;;;;1.10;0.82;;;;;;;10.36;100.00;101045.78;7399307;19;20031;-58
2022/08/08 05:30:05;;;;;;;2.03;1.63;;;;;;;10.35;100.00;101045.00;7397181;19;20018;-59
2022/08/08 05:32:40;;;;;;;0.68;0.57;;;;;;;10.35;100.00;101039.44;7396905;19;20074;-58
2022/08/08 05:35:13;;;;;;;0.80;0.70;;;;;;;10.35;100.00;101047.03;7393568;19;20010;-59
2022/08/08 05:37:46;;;;;;;0.60;0.60;;;;;;;10.34;100.00;101054.59;7398441;19;20078;-58
2022/08/08 05:40:13;;;;;;;1.75;1.02;;;;;;;10.35;100.00;101056.13;7394961;19;20106;-58
2022/08/08 05:42:44;;;;;;;1.00;0.55;;;;;;;10.38;100.00;101052.47;7395266;19;20006;-59
2022/08/08 05:45:12;;;;;;;3.15;1.65;;;;;;;10.42;100.00;101055.94;7395357;19;20468;-58
2022/08/08 05:47:41;;;;;;;0.40;0.32;;;;;;;10.39;100.00;101053.25;7400483;19;20015;-59
2022/08/08 05:50:09;;;;;;;0.95;0.88;;;;;;;10.47;100.00;101052.59;7394645;19;20017;-58
2022/08/08 05:52:37;;;;;;;0.95;0.88;;;;;;;10.53;100.00;101050.03;7394816;19;20356;-58
2022/08/08 05:55:06;;;;;;;0.32;0.32;;;;;;;10.59;100.00;101065.72;7395177;19;20348;-59
2022/08/08 05:57:34;;;;;;;1.20;0.68;;;;;;;10.64;100.00;101067.19;7399895;19;20010;-59
2022/08/08 06:00:07;;;;;;;4.70;1.38;;;;;;;10.68;100.00;101067.09;7395146;19;20043;-58
2022/08/08 06:05:48;;;;;;;1.10;1.00;;;;;;;10.85;100.00;101065.72;7393884;19;20018;-59
2022/08/08 06:08:27;;;;;;;3.13;1.48;;;;;;;10.93;100.00;101072.63;7397956;19;20011;-58
2022/08/08 06:10:57;;;;;;;4.47;1.75;;;;;;;11.00;100.00;101066.81;7393683;19;20018;-58
2022/08/08 06:13:27;;;;;;;7.05;2.17;;;;;;;11.07;100.00;101083.28;7393480;19;20010;-58
2022/08/08 06:15:55;;;;;;;6.10;1.80;;;;;;;11.15;100.00;101079.81;7393565;19;20393;-58
2022/08/08 06:18:50;;;;;;;3.55;1.20;;;;;;;11.27;100.00;101079.00;7393593;19;20010;-58
2022/08/08 06:21:18;;;;;;;11.18;1.88;;;;;;;11.35;100.00;101074.75;7393615;19;20484;-58
2022/08/08 06:23:45;;;;;;;1.60;0.80;;;;;;;11.44;100.00;101088.78;7394827;19;20014;-58
2022/08/08 06:26:13;;;;;;;0.88;0.70;;;;;;;11.52;100.00;101080.16;7395335;19;20561;-58
2022/08/08 06:28:47;;;;;;;4.05;1.35;;;;;;;11.61;100.00;101089.38;7393484;19;20053;-58
2022/08/08 06:31:21;;;;;;;3.95;1.25;;;;;;;11.66;100.00;101094.38;7393058;19;20364;-58
2022/08/08 06:33:58;;;;;;;1.05;0.70;;;;;;;11.76;100.00;101095.28;7395641;19;20530;-58
2022/08/08 06:36:35;;;;;;;0.68;0.45;;;;;;;11.83;100.00;101098.56;7392935;19;20035;-58
2022/08/08 06:39:05;;;;;;;1.45;0.63;;;;;;;11.93;100.00;101094.59;7392974;19;20018;-58
2022/08/08 06:41:33;;;;;;;5.18;0.90;;;;;;;12.02;100.00;101105.84;7393560;19;20028;-59
2022/08/08 06:44:04;;;;;;;1.85;0.65;;;;;;;12.12;100.00;101110.28;7391629;19;20026;-58
2022/08/08 06:46:34;;;;;;;4.32;0.70;;;;;;;12.20;100.00;101102.38;7395735;19;20022;-59
2022/08/08 06:49:01;;;;;;;2.08;0.88;;;;;;;12.34;100.00;101103.88;7397082;19;20049;-58
2022/08/08 06:51:27;;;;;;;5.43;0.80;;;;;;;12.48;100.00;101106.09;7390375;19;20082;-58
2022/08/08 06:53:55;;;;;;;2.55;0.95;;;;;;;12.53;100.00;101108.31;7392740;19;20386;-58
2022/08/08 06:56:23;;;;;;;4.55;1.45;;;;;;;12.60;100.00;101116.44;7392746;19;20020;-58
2022/08/08 06:58:49;;;;;;;0.88;0.70;;;;;;;12.66;100.00;101114.59;7391706;19;20010;-58
2022/08/08 07:01:16;;;;;;;2.30;1.05;;;;;;;12.72;100.00;101115.53;7390999;19;20025;-58
2022/08/08 07:03:55;;;;;;;4.38;0.98;;;;;;;12.88;100.00;101118.09;7393600;19;20014;-58
2022/08/08 07:06:24;;;;;;;0.93;0.50;;;;;;;13.03;100.00;101107.09;7393383;19;20038;-58
2022/08/08 07:08:53;;;;;;;1.98;1.02;;;;;;;13.22;100.00;101115.09;7395726;19;20043;-58
2022/08/08 07:11:31;;;;;;;1.80;1.10;;;;;;;13.37;100.00;101116.06;7390631;19;20010;-58
2022/08/08 07:14:03;;;;;;;1.02;0.60;;;;;;;13.46;100.00;101107.69;7393101;19;20027;-58
2022/08/08 07:16:46;;;;;;;4.22;0.90;;;;;;;13.58;100.00;101122.75;7393673;19;20078;-58
2022/08/08 07:19:50;;;;;;;3.05;1.00;;;;;;;13.65;100.00;101120.44;7392094;19;20494;-58
2022/08/08 07:22:26;;;;;;;2.00;0.63;;;;;;;13.81;100.00;101126.97;7391518;19;20491;-58
2022/08/08 07:24:58;;;;;;;1.05;0.75;;;;;;;13.89;100.00;101131.00;7390797;19;20365;-58
2022/08/08 07:27:32;;;;;;;4.63;0.93;;;;;;;14.03;100.00;101127.59;7394092;19;20424;-57
2022/08/08 07:29:59;;;;;;;4.28;1.17;;;;;;;14.15;100.00;101121.03;7392863;19;20019;-57
2022/08/08 07:32:26;;;;;;;2.85;1.13;;;;;;;14.25;100.00;101128.94;7389367;19;20017;-57
2022/08/08 07:34:54;;;;;;;3.67;0.85;;;;;;;14.41;100.00;101137.06;7391062;19;20017;-57
2022/08/08 07:37:22;;;;;;;0.75;0.50;;;;;;;14.72;100.00;101134.00;7395041;19;20022;-58
2022/08/08 07:39:49;;;;;;;1.25;0.80;;;;;;;14.92;100.00;101125.78;7391278;19;20014;-57
2022/08/08 07:42:17;;;;;;;1.08;0.20;;;;;;;15.01;100.00;101133.38;7390916;19;20010;-58
2022/08/08 07:44:46;;;;;;;0.95;0.75;;;;;;;15.03;100.00;101136.50;7392424;19;20034;-58
2022/08/08 07:47:14;;;;;;;;;;;;;;;15.07;100.00;101132.25;7397593;19;20074;-58
2022/08/08 07:49:42;;;;;;;1.48;0.82;;;;;;;15.08;100.00;101139.44;7398596;19;20317;-60
2022/08/08 07:52:11;;;;;;;1.35;0.68;;;;;;;15.18;100.00;101143.00;7396784;19;20091;-58
2022/08/08 07:54:42;;;;;;;7.13;0.68;;;;;;;15.28;100.00;101143.69;7396893;19;20022;-58
2022/08/08 07:57:27;;;;;;;7.55;0.63;;;;;;;15.36;100.00;101142.09;7398513;19;20030;-58
2022/08/08 08:00:11;;;;;;;0.30;0.30;;;;;;;15.50;100.00;101141.41;7395083;19;20070;-58
2022/08/08 08:03:10;;;;;;;1.00;0.45;;;;;;;15.61;100.00;101141.66;7398784;19;20362;-58
2022/08/08 08:05:42;;;;;;;7.35;1.17;;;;;;;15.67;100.00;101151.75;7398362;19;20014;-58
2022/08/08 08:08:26;;;;;;;4.07;0.88;;;;;;;15.84;100.00;101154.88;7402643;19;20014;-58
2022/08/08 08:10:57;;;;;;;1.75;0.68;;;;;;;16.12;100.00;101159.00;7396989;19;20010;-58
2022/08/08 08:13:53;;;;;;;3.90;0.57;;;;;;;16.33;100.00;101152.25;7398660;19;20027;-58
2022/08/08 08:16:25;;;;;;;3.65;1.35;;;;;;;16.46;100.00;101158.34;7398594;19;20007;-59
2022/08/08 08:18:57;;;;;;;1.10;0.35;;;;;;;16.67;100.00;101148.00;7397759;19;20010;-58
2022/08/08 08:21:50;;;;;;;1.77;0.60;;;;;;;17.01;100.00;101152.13;7397823;19;20022;-59
2022/08/08 08:24:23;;;;;;;1.75;0.57;;;;;;;17.47;100.00;101158.69;7397117;19;20014;-58
2022/08/08 08:26:49;;;;;;;1.75;0.40;;;;;;;17.77;100.00;101153.72;7400555;19;20014;-58
2022/08/08 08:29:16;;;;;;;0.93;0.60;;;;;;;18.00;100.00;101161.94;7397719;19;20066;-58
2022/08/08 08:31:44;;;;;;;1.85;0.55;;;;;;;18.27;100.00;101149.41;7395023;19;20073;-59
2022/08/08 08:34:12;;;;;;;3.15;1.08;;;;;;;18.55;100.00;101149.69;7397940;19;20018;-58
2022/08/08 08:36:40;;;;;;;1.30;0.43;;;;;;;18.84;100.00;101147.38;7399005;19;20424;-59
2022/08/08 08:39:07;;;;;;;1.83;0.60;;;;;;;19.08;100.00;101147.03;7397793;19;20344;-59
2022/08/08 08:41:41;;;;;;;1.55;0.70;;;;;;;19.26;100.00;101137.38;7399443;19;20007;-59
2022/08/08 08:44:09;;;;;;;2.20;0.60;;;;;;;19.48;100.00;101140.38;7396273;19;20007;-59
2022/08/08 08:46:37;;;;;;;3.28;0.77;;;;;;;19.79;100.00;101131.00;7398596;19;20011;-59
2022/08/08 08:49:05;;;;;;;2.83;0.98;;;;;;;20.07;100.00;101131.84;7396928;19;20011;-59
2022/08/08 08:51:37;;;;;;;0.35;0.13;;;;;;;20.28;100.00;101119.06;7396188;19;20007;-59
2022/08/08 08:54:06;;;;;;;1.50;0.43;;;;;;;20.51;100.00;101117.03;7397586;19;20017;-59
2022/08/08 08:56:36;;;;;;;0.85;0.20;;;;;;;20.63;100.00;101110.84;7393650;19;20010;-59
2022/08/08 08:59:14;;;;;;;0.55;0.30;;;;;;;20.83;100.00;101113.41;7391473;19;20029;-59
2022/08/08 09:01:43;;;;;;;;;;;;;;;20.86;100.00;101112.38;7396701;19;20456;-59
2022/08/08 09:04:18;;;;;;;0.85;0.40;;;;;;;20.88;100.00;101112.63;7393587;19;20241;-59
2022/08/08 09:06:47;;;;;;;1.10;0.52;;;;;;;20.91;100.00;101105.16;7397295;19;20070;-59
2022/08/08 09:09:19;;;;;;;0.57;0.20;;;;;;;20.88;100.00;101112.63;7398873;19;20403;-59
2022/08/08 09:11:47;;;;;;;6.05;0.20;;;;;;;20.76;100.00;101111.09;7394833;19;20036;-59
2022/08/08 09:14:15;;;;;;;1.73;0.22;;;;;;;20.67;100.00;101108.53;7396945;19;20470;-59
2022/08/08 09:16:44;;;;;;;0.80;0.37;;;;;;;20.63;100.00;101110.06;7393930;19;20364;-59
2022/08/08 09:19:11;;;;;;;0.40;0.00;;;;;;;20.52;100.00;101110.84;7398046;19;20435;-59
2022/08/08 09:21:38;;;;;;;0.52;0.10;;;;;;;20.44;100.00;101112.66;7396207;19;20011;-60
2022/08/08 09:24:04;;;;;;;0.93;0.77;;;;;;;20.35;100.00;101107.25;7397448;19;20031;-59
2022/08/08 09:26:32;;;;;;;2.22;0.20;;;;;;;20.32;100.00;101109.03;7397705;19;20010;-59
2022/08/08 09:29:01;;;;;;;1.75;0.30;;;;;;;20.29;100.00;101104.38;7396708;19;20011;-59
2022/08/08 09:32:02;;;;;;;0.60;0.13;;;;;;;20.62;100.00;101100.81;7394838;19;20018;-59
2022/08/08 09:34:36;;;;;;;2.90;0.30;;;;;;;20.96;100.00;101107.97;7395872;19;20011;-59
2022/08/08 09:37:09;;;;;;;5.68;0.38;;;;;;;21.10;100.00;101109.78;7397163;19;20014;-59
2022/08/08 09:39:48;;;;;;;1.10;0.20;;;;;;;21.12;100.00;101098.72;7397015;19;20019;-60
2022/08/08 09:42:15;;;;;;;4.10;0.30;;;;;;;21.20;100.00;101098.97;7394391;19;20479;-59
2022/08/08 09:44:44;;;;;;;2.05;0.65;;;;;;;21.25;100.00;101088.88;7397253;19;20019;-59
2022/08/08 09:47:13;;;;;;;3.03;0.40;;;;;;;21.26;100.00;101090.44;7398543;19;20066;-59
2022/08/08 09:49:42;;;;;;;2.55;0.65;;;;;;;21.39;100.00;101088.59;7395827;19;20018;-58
2022/08/08 09:52:08;;;;;;;2.13;0.20;;;;;;;21.49;100.00;101086.22;7395002;19;20014;-59
2022/08/08 09:54:42;;;;;;;2.08;0.95;;;;;;;21.62;100.00;101089.25;7393460;19;20070;-59
2022/08/08 09:57:10;;;;;;;0.68;0.45;;;;;;;21.74;100.00;101082.25;7398435;19;20006;-58
2022/08/08 09:59:40;;;;;;;0.77;0.30;;;;;;;21.69;100.00;101085.88;7396384;19;20011;-59
2022/08/08 10:02:17;;;;;;;2.28;0.50;;;;;;;21.46;100.00;101081.59;7396230;19;20014;-59
2022/08/08 10:04:45;;;;;;;0.30;0.22;;;;;;;21.17;100.00;101082.22;7396280;19;20029;-59
2022/08/08 10:07:12;;;;;;;2.70;0.30;;;;;;;20.95;100.00;101083.78;7397803;19;20021;-58
2022/08/08 10:09:42;;;;;;;2.75;0.15;;;;;;;20.75;100.00;101086.91;7394131;19;20014;-59
2022/08/08 10:12:09;;;;;;;4.65;0.43;;;;;;;20.58;100.00;101076.88;7393009;19;20030;-59
2022/08/08 10:14:37;;;;;;;8.70;0.40;;;;;;;20.46;100.00;101078.94;7396471;19;20472;-58
2022/08/08 10:17:06;;;;;;;0.30;0.20;;;;;;;20.47;100.00;101076.88;7396835;19;20014;-58
2022/08/08 10:19:34;;;;;;;0.95;0.32;;;;;;;20.66;100.00;101078.66;7395581;19;20039;-58
2022/08/08 10:22:03;;;;;;;9.32;0.70;;;;;;;20.65;100.00;101067.88;7392301;19;20074;-58
2022/08/08 10:24:31;;;;;;;1.02;0.40;;;;;;;20.52;100.00;101074.06;7391680;19;20022;-58
2022/08/08 10:27:05;;;;;;;8.27;1.17;;;;;;;20.43;100.00;101077.13;7391873;19;20498;-58
2022/08/08 10:29:58;;;;;;;1.52;0.55;;;;;;;20.84;100.00;101066.81;7393192;19;20078;-58
2022/08/08 10:32:35;;;;;;;0.60;0.35;;;;;;;21.29;100.00;101066.72;7393319;19;20559;-59
2022/08/08 10:35:05;;;;;;;1.10;0.63;;;;;;;21.70;100.00;101068.31;7394758;19;20026;-58
2022/08/08 10:37:33;;;;;;;0.50;0.10;;;;;;;22.09;100.00;101059.59;7399098;19;20035;-57
2022/08/08 10:40:10;;;;;;;4.93;1.00;;;;;;;22.41;100.00;101063.50;7395502;19;20255;-57
2022/08/08 10:42:39;;;;;;;3.13;0.50;;;;;;;22.72;100.00;101053.66;7395967;19;20479;-58
2022/08/08 10:45:07;;;;;;;0.80;0.47;;;;;;;22.98;100.00;101048.25;7396831;19;20010;-58
2022/08/08 10:47:34;;;;;;;0.52;0.20;;;;;;;23.15;100.00;101057.34;7398261;19;20468;-58
2022/08/08 10:50:02;;;;;;;1.17;0.10;;;;;;;22.99;100.00;101071.75;7394452;19;20021;-57
2022/08/08 10:52:34;;;;;;;0.73;0.35;;;;;;;22.89;100.00;101067.72;7390762;19;20344;-58
2022/08/08 10:55:05;;;;;;;2.25;0.35;;;;;;;23.05;100.00;101069.59;7393639;19;20066;-58
2022/08/08 10:57:40;;;;;;;2.95;0.20;;;;;;;22.88;100.00;101066.94;7397341;19;20038;-58
2022/08/08 11:00:09;;;;;;;0.40;0.40;;;;;;;22.63;100.00;101069.00;7394939;19;20022;-58
2022/08/08 11:02:35;;;;;;;0.25;0.10;;;;;;;22.70;100.00;101064.81;7394216;19;20367;-58
2022/08/08 11:05:08;;;;;;;1.25;0.30;;;;;;;22.75;100.00;101063.97;7394156;19;20475;-58
2022/08/08 11:07:56;;;;;;;1.33;0.20;;;;;;;22.84;100.00;101057.19;7395509;19;20018;-58
2022/08/08 11:10:24;;;;;;;0.93;0.13;;;;;;;23.02;100.00;101054.38;7393742;19;20039;-58
2022/08/08 11:12:56;;;;;;;1.95;0.30;;;;;;;23.13;100.00;101047.84;7393887;19;20135;-59
2022/08/08 11:15:24;;;;;;;2.75;0.10;;;;;;;23.20;100.00;101045.16;7396509;19;20463;-58
2022/08/08 11:17:51;;;;;;;0.40;0.03;;;;;;;23.36;100.00;101043.44;7396908;19;20367;-58
2022/08/08 11:20:21;;;;;;;1.05;0.20;;;;;;;23.53;100.00;101051.75;7394145;19;20017;-59
2022/08/08 11:22:52;;;;;;;1.08;0.13;;;;;;;23.62;100.00;101049.31;7392506;19;20011;-59
2022/08/08 11:25:25;;;;;;;0.32;0.20;;;;;;;23.65;100.00;101053.16;7393388;19;20018;-58
2022/08/08 11:27:57;;;;;;;1.55;0.08;;;;;;;23.72;100.00;101052.50;7397803;19;20010;-59
2022/08/08 11:30:27;;;;;;;1.10;0.10;;;;;;;23.76;100.00;101053.75;7392703;19;20023;-59
2022/08/08 11:32:56;;;;;;;1.20;0.10;;;;;;;23.77;100.00;101052.44;7393921;19;20006;-59
2022/08/08 11:35:26;;;;;;;1.15;0.30;;;;;;;23.79;100.00;101051.91;7393387;19;20011;-59
2022/08/08 11:37:52;;;;;;;1.08;0.10;;;;;;;23.71;100.00;101057.47;7397318;19;20344;-60
2022/08/08 11:40:19;;;;;;;0.55;0.10;;;;;;;23.21;100.00;101049.53;7392873;19;20378;-59
2022/08/08 11:42:46;;;;;;;5.00;0.47;;;;;;;23.20;100.00;101044.38;7390887;19;20019;-59
2022/08/08 11:45:12;;;;;;;3.97;0.35;;;;;;;23.32;100.00;101038.00;7393004;19;20011;-59
2022/08/08 11:47:39;;;;;;;1.95;0.25;;;;;;;23.29;100.00;101044.00;7390980;19;20018;-59
2022/08/08 11:50:07;;;;;;;0.80;0.20;;;;;;;23.57;100.00;101046.53;7396602;19;20541;-60
2022/08/08 11:52:35;;;;;;;0.85;0.20;;;;;;;23.87;100.00;101045.06;7392103;19;20007;-59
2022/08/08 11:55:02;;;;;;;2.35;0.10;;;;;;;24.06;100.00;101042.97;7392111;19;20111;-59
2022/08/08 11:57:29;;;;;;;0.20;0.10;;;;;;;24.21;100.00;101042.50;7395516;19;20074;-58
2022/08/08 11:59:56;;;;;;;0.30;0.00;;;;;;;24.17;100.00;101033.50;7392545;19;20039;-59